sensor_id;sensor_type;location;lat;lon;timestamp;temperature;humidity
3699;DHT22;1865;50.918;7.092;2022-12-05T00:00:15;8.80;53.40
3699;DHT22;1865;50.918;7.092;2022-12-05T00:02:41;8.60;53.40
3699;DHT22;1865;50.918;7.092;2022-12-05T00:05:08;8.60;53.40
3699;DHT22;1865;50.918;7.092;2022-12-05T00:07:36;8.90;53.80
3699;DHT22;1865;50.918;7.092;2022-12-05T00:10:03;8.60;53.60
3699;DHT22;1865;50.918;7.092;2022-12-05T00:12:29;8.60;53.60
3699;DHT22;1865;50.918;7.092;2022-12-05T00:14:54;8.60;53.70
3699;DHT22;1865;50.918;7.092;2022-12-05T00:17:20;8.70;53.60
3699;DHT22;1865;50.918;7.092;2022-12-05T00:19:46;8.60;53.40
3699;DHT22;1865;50.918;7.092;2022-12-05T00:22:11;8.60;53.50
3699;DHT22;1865;50.918;7.092;2022-12-05T00:24:38;8.60;53.60
3699;DHT22;1865;50.918;7.092;2022-12-05T00:27:08;8.60;53.60
3699;DHT22;1865;50.918;7.092;2022-12-05T00:29:35;8.70;53.70
3699;DHT22;1865;50.918;7.092;2022-12-05T00:32:01;8.70;53.40
3699;DHT22;1865;50.918;7.092;2022-12-05T00:34:26;8.70;53.50
3699;DHT22;1865;50.918;7.092;2022-12-05T00:36:52;8.70;53.50
3699;DHT22;1865;50.918;7.092;2022-12-05T00:39:19;8.60;53.30
3699;DHT22;1865;50.918;7.092;2022-12-05T00:41:45;8.70;53.50
3699;DHT22;1865;50.918;7.092;2022-12-05T00:44:12;8.70;54.20
3699;DHT22;1865;50.918;7.092;2022-12-05T00:46:38;8.70;53.20
3699;DHT22;1865;50.918;7.092;2022-12-05T00:49:05;8.70;53.50
3699;DHT22;1865;50.918;7.092;2022-12-05T00:51:39;8.70;53.40
3699;DHT22;1865;50.918;7.092;2022-12-05T00:54:09;8.70;53.50
3699;DHT22;1865;50.918;7.092;2022-12-05T00:56:35;8.70;53.80
3699;DHT22;1865;50.918;7.092;2022-12-05T00:59:01;8.70;53.50
3699;DHT22;1865;50.918;7.092;2022-12-05T01:01:36;8.70;53.50
3699;DHT22;1865;50.918;7.092;2022-12-05T01:04:08;8.70;53.20
3699;DHT22;1865;50.918;7.092;2022-12-05T01:06:34;8.70;53.50
3699;DHT22;1865;50.918;7.092;2022-12-05T01:09:00;8.70;53.80
3699;DHT22;1865;50.918;7.092;2022-12-05T01:11:27;8.60;53.70
3699;DHT22;1865;50.918;7.092;2022-12-05T01:13:53;8.80;53.90
3699;DHT22;1865;50.918;7.092;2022-12-05T01:16:23;8.60;53.50
3699;DHT22;1865;50.918;7.092;2022-12-05T01:18:51;8.60;53.60
3699;DHT22;1865;50.918;7.092;2022-12-05T01:21:19;8.60;53.90
3699;DHT22;1865;50.918;7.092;2022-12-05T01:23:46;8.60;53.70
3699;DHT22;1865;50.918;7.092;2022-12-05T01:26:13;8.70;53.90
3699;DHT22;1865;50.918;7.092;2022-12-05T01:28:39;8.60;53.90
3699;DHT22;1865;50.918;7.092;2022-12-05T01:31:13;8.60;53.60
3699;DHT22;1865;50.918;7.092;2022-12-05T01:33:41;8.60;53.80
3699;DHT22;1865;50.918;7.092;2022-12-05T01:36:10;8.60;53.70
3699;DHT22;1865;50.918;7.092;2022-12-05T01:38:39;8.60;53.90
3699;DHT22;1865;50.918;7.092;2022-12-05T01:41:08;8.60;54.10
3699;DHT22;1865;50.918;7.092;2022-12-05T01:46:21;8.60;54.00
3699;DHT22;1865;50.918;7.092;2022-12-05T01:48:47;8.60;54.00
3699;DHT22;1865;50.918;7.092;2022-12-05T01:51:14;8.60;54.00
3699;DHT22;1865;50.918;7.092;2022-12-05T01:53:40;8.60;53.90
3699;DHT22;1865;50.918;7.092;2022-12-05T01:56:06;8.50;54.10
3699;DHT22;1865;50.918;7.092;2022-12-05T01:58:35;8.50;54.00
3699;DHT22;1865;50.918;7.092;2022-12-05T02:01:02;8.60;53.90
3699;DHT22;1865;50.918;7.092;2022-12-05T02:03:28;8.60;54.10
3699;DHT22;1865;50.918;7.092;2022-12-05T02:05:56;8.60;53.80
3699;DHT22;1865;50.918;7.092;2022-12-05T02:08:27;8.60;53.60
3699;DHT22;1865;50.918;7.092;2022-12-05T02:10:55;8.60;53.70
3699;DHT22;1865;50.918;7.092;2022-12-05T02:16:08;8.60;53.80
3699;DHT22;1865;50.918;7.092;2022-12-05T02:21:59;8.50;53.60
3699;DHT22;1865;50.918;7.092;2022-12-05T02:24:54;8.40;54.70
3699;DHT22;1865;50.918;7.092;2022-12-05T02:30:24;8.30;55.60
3699;DHT22;1865;50.918;7.092;2022-12-05T02:33:02;8.30;56.00
3699;DHT22;1865;50.918;7.092;2022-12-05T02:41:21;8.20;56.90
3699;DHT22;1865;50.918;7.092;2022-12-05T02:46:22;8.20;56.10
3699;DHT22;1865;50.918;7.092;2022-12-05T02:48:52;8.10;56.50
3699;DHT22;1865;50.918;7.092;2022-12-05T02:51:20;8.10;56.50
3699;DHT22;1865;50.918;7.092;2022-12-05T02:53:47;8.10;57.10
3699;DHT22;1865;50.918;7.092;2022-12-05T02:56:14;8.10;56.80
3699;DHT22;1865;50.918;7.092;2022-12-05T02:58:47;8.20;56.10
3699;DHT22;1865;50.918;7.092;2022-12-05T03:01:15;8.10;56.30
3699;DHT22;1865;50.918;7.092;2022-12-05T03:03:42;8.00;56.20
3699;DHT22;1865;50.918;7.092;2022-12-05T03:06:12;8.00;56.40
3699;DHT22;1865;50.918;7.092;2022-12-05T03:09:15;8.00;56.20
3699;DHT22;1865;50.918;7.092;2022-12-05T03:11:49;7.90;56.00
3699;DHT22;1865;50.918;7.092;2022-12-05T03:14:25;7.90;56.00
3699;DHT22;1865;50.918;7.092;2022-12-05T03:16:55;7.90;55.90
3699;DHT22;1865;50.918;7.092;2022-12-05T03:19:26;7.90;55.60
3699;DHT22;1865;50.918;7.092;2022-12-05T03:22:02;7.80;55.50
3699;DHT22;1865;50.918;7.092;2022-12-05T03:24:34;7.70;55.80
3699;DHT22;1865;50.918;7.092;2022-12-05T03:27:21;7.80;55.70
3699;DHT22;1865;50.918;7.092;2022-12-05T03:29:57;7.80;55.70
3699;DHT22;1865;50.918;7.092;2022-12-05T03:32:35;7.80;55.60
3699;DHT22;1865;50.918;7.092;2022-12-05T03:36:18;7.60;55.70
3699;DHT22;1865;50.918;7.092;2022-12-05T03:38:21;7.70;55.70
3699;DHT22;1865;50.918;7.092;2022-12-05T03:41:13;7.60;55.00
3699;DHT22;1865;50.918;7.092;2022-12-05T03:43:56;7.60;55.40
3699;DHT22;1865;50.918;7.092;2022-12-05T03:46:33;7.50;55.60
3699;DHT22;1865;50.918;7.092;2022-12-05T03:49:25;7.50;55.50
3699;DHT22;1865;50.918;7.092;2022-12-05T03:52:13;7.50;55.40
3699;DHT22;1865;50.918;7.092;2022-12-05T03:54:48;7.40;55.60
3699;DHT22;1865;50.918;7.092;2022-12-05T03:57:19;7.40;55.30
3699;DHT22;1865;50.918;7.092;2022-12-05T04:00:07;7.40;55.50
3699;DHT22;1865;50.918;7.092;2022-12-05T04:02:55;7.30;55.20
3699;DHT22;1865;50.918;7.092;2022-12-05T04:05:29;7.10;55.00
3699;DHT22;1865;50.918;7.092;2022-12-05T04:08:03;7.10;55.80
3699;DHT22;1865;50.918;7.092;2022-12-05T04:10:35;7.10;55.90
3699;DHT22;1865;50.918;7.092;2022-12-05T04:14:00;7.20;55.70
3699;DHT22;1865;50.918;7.092;2022-12-05T04:16:09;7.10;55.70
3699;DHT22;1865;50.918;7.092;2022-12-05T04:21:43;7.00;55.60
3699;DHT22;1865;50.918;7.092;2022-12-05T04:24:16;6.90;56.40
3699;DHT22;1865;50.918;7.092;2022-12-05T04:27:20;7.00;56.60
3699;DHT22;1865;50.918;7.092;2022-12-05T04:32:28;6.80;56.00
3699;DHT22;1865;50.918;7.092;2022-12-05T04:35:00;6.80;56.30
3699;DHT22;1865;50.918;7.092;2022-12-05T04:37:30;6.80;55.60
3699;DHT22;1865;50.918;7.092;2022-12-05T04:40:05;6.70;55.90
3699;DHT22;1865;50.918;7.092;2022-12-05T04:42:33;6.70;56.10
3699;DHT22;1865;50.918;7.092;2022-12-05T04:45:04;6.60;56.30
3699;DHT22;1865;50.918;7.092;2022-12-05T04:47:36;6.70;56.90
3699;DHT22;1865;50.918;7.092;2022-12-05T04:50:06;6.80;56.90
3699;DHT22;1865;50.918;7.092;2022-12-05T04:52:37;6.80;55.60
3699;DHT22;1865;50.918;7.092;2022-12-05T04:55:13;6.80;55.90
3699;DHT22;1865;50.918;7.092;2022-12-05T04:58:07;6.70;56.60
3699;DHT22;1865;50.918;7.092;2022-12-05T05:03:33;6.70;56.40
3699;DHT22;1865;50.918;7.092;2022-12-05T05:06:00;6.70;55.70
3699;DHT22;1865;50.918;7.092;2022-12-05T05:08:28;6.70;56.00
3699;DHT22;1865;50.918;7.092;2022-12-05T05:13:43;6.50;56.00
3699;DHT22;1865;50.918;7.092;2022-12-05T05:16:17;6.50;56.50
3699;DHT22;1865;50.918;7.092;2022-12-05T05:18:47;6.50;56.40
3699;DHT22;1865;50.918;7.092;2022-12-05T05:21:28;6.70;56.00
3699;DHT22;1865;50.918;7.092;2022-12-05T05:23:54;6.60;55.20
3699;DHT22;1865;50.918;7.092;2022-12-05T05:26:21;6.50;55.60
3699;DHT22;1865;50.918;7.092;2022-12-05T05:28:47;6.50;56.30
3699;DHT22;1865;50.918;7.092;2022-12-05T05:31:14;6.40;56.00
3699;DHT22;1865;50.918;7.092;2022-12-05T05:33:40;6.30;56.10
3699;DHT22;1865;50.918;7.092;2022-12-05T05:36:08;6.30;56.90
3699;DHT22;1865;50.918;7.092;2022-12-05T05:38:39;6.30;56.90
3699;DHT22;1865;50.918;7.092;2022-12-05T05:41:04;6.40;56.90
3699;DHT22;1865;50.918;7.092;2022-12-05T05:43:33;6.40;57.40
3699;DHT22;1865;50.918;7.092;2022-12-05T05:46:02;6.40;57.40
3699;DHT22;1865;50.918;7.092;2022-12-05T05:48:28;6.50;57.20
3699;DHT22;1865;50.918;7.092;2022-12-05T05:50:54;6.60;56.50
3699;DHT22;1865;50.918;7.092;2022-12-05T05:53:19;6.60;55.70
3699;DHT22;1865;50.918;7.092;2022-12-05T05:55:46;6.60;55.40
3699;DHT22;1865;50.918;7.092;2022-12-05T05:58:12;6.60;56.20
3699;DHT22;1865;50.918;7.092;2022-12-05T06:00:39;6.60;55.80
3699;DHT22;1865;50.918;7.092;2022-12-05T06:03:07;6.50;56.40
3699;DHT22;1865;50.918;7.092;2022-12-05T06:05:33;6.70;56.10
3699;DHT22;1865;50.918;7.092;2022-12-05T06:07:58;6.60;55.60
3699;DHT22;1865;50.918;7.092;2022-12-05T06:10:25;6.60;56.00
3699;DHT22;1865;50.918;7.092;2022-12-05T06:12:51;6.60;55.60
3699;DHT22;1865;50.918;7.092;2022-12-05T06:15:18;6.60;55.90
3699;DHT22;1865;50.918;7.092;2022-12-05T06:17:47;6.50;56.00
3699;DHT22;1865;50.918;7.092;2022-12-05T06:20:12;6.50;56.50
3699;DHT22;1865;50.918;7.092;2022-12-05T06:22:38;6.60;56.30
3699;DHT22;1865;50.918;7.092;2022-12-05T06:25:05;6.50;56.00
3699;DHT22;1865;50.918;7.092;2022-12-05T06:27:31;6.40;56.20
3699;DHT22;1865;50.918;7.092;2022-12-05T06:29:57;6.40;56.60
3699;DHT22;1865;50.918;7.092;2022-12-05T06:32:23;6.50;56.50
3699;DHT22;1865;50.918;7.092;2022-12-05T06:34:48;6.50;56.90
3699;DHT22;1865;50.918;7.092;2022-12-05T06:37:14;6.50;56.50
3699;DHT22;1865;50.918;7.092;2022-12-05T06:39:39;6.80;56.60
3699;DHT22;1865;50.918;7.092;2022-12-05T06:42:05;6.50;56.20
3699;DHT22;1865;50.918;7.092;2022-12-05T06:44:32;6.50;56.30
3699;DHT22;1865;50.918;7.092;2022-12-05T06:46:58;6.60;56.50
3699;DHT22;1865;50.918;7.092;2022-12-05T06:49:24;6.70;56.30
3699;DHT22;1865;50.918;7.092;2022-12-05T06:51:52;6.60;55.80
3699;DHT22;1865;50.918;7.092;2022-12-05T06:54:17;6.60;56.20
3699;DHT22;1865;50.918;7.092;2022-12-05T06:56:43;6.80;56.40
3699;DHT22;1865;50.918;7.092;2022-12-05T06:59:08;6.80;56.40
3699;DHT22;1865;50.918;7.092;2022-12-05T07:01:34;6.50;55.90
3699;DHT22;1865;50.918;7.092;2022-12-05T07:04:09;6.40;56.60
3699;DHT22;1865;50.918;7.092;2022-12-05T07:06:37;6.40;57.00
3699;DHT22;1865;50.918;7.092;2022-12-05T07:09:05;6.50;56.70
3699;DHT22;1865;50.918;7.092;2022-12-05T07:11:32;6.50;56.70
3699;DHT22;1865;50.918;7.092;2022-12-05T07:13:58;6.40;56.30
3699;DHT22;1865;50.918;7.092;2022-12-05T07:16:23;6.30;56.70
3699;DHT22;1865;50.918;7.092;2022-12-05T07:18:49;6.40;57.00
3699;DHT22;1865;50.918;7.092;2022-12-05T07:21:15;6.40;57.20
3699;DHT22;1865;50.918;7.092;2022-12-05T07:23:44;6.40;57.10
3699;DHT22;1865;50.918;7.092;2022-12-05T07:26:16;6.40;56.60
3699;DHT22;1865;50.918;7.092;2022-12-05T07:28:45;6.40;57.30
3699;DHT22;1865;50.918;7.092;2022-12-05T07:31:19;6.40;57.40
3699;DHT22;1865;50.918;7.092;2022-12-05T07:33:47;6.50;57.20
3699;DHT22;1865;50.918;7.092;2022-12-05T07:36:15;6.40;57.70
3699;DHT22;1865;50.918;7.092;2022-12-05T07:38:43;6.40;57.60
3699;DHT22;1865;50.918;7.092;2022-12-05T07:41:13;6.50;57.30
3699;DHT22;1865;50.918;7.092;2022-12-05T07:43:41;6.50;57.50
3699;DHT22;1865;50.918;7.092;2022-12-05T07:46:08;6.50;57.00
3699;DHT22;1865;50.918;7.092;2022-12-05T07:48:36;6.60;57.00
3699;DHT22;1865;50.918;7.092;2022-12-05T07:51:05;6.60;57.50
3699;DHT22;1865;50.918;7.092;2022-12-05T07:53:32;6.60;56.90
3699;DHT22;1865;50.918;7.092;2022-12-05T07:55:59;6.60;57.50
3699;DHT22;1865;50.918;7.092;2022-12-05T07:58:25;6.60;56.70
3699;DHT22;1865;50.918;7.092;2022-12-05T08:00:52;6.70;57.30
3699;DHT22;1865;50.918;7.092;2022-12-05T08:03:18;6.80;56.90
3699;DHT22;1865;50.918;7.092;2022-12-05T08:05:43;6.60;56.40
3699;DHT22;1865;50.918;7.092;2022-12-05T08:08:09;6.70;56.50
3699;DHT22;1865;50.918;7.092;2022-12-05T08:10:36;6.60;56.20
3699;DHT22;1865;50.918;7.092;2022-12-05T08:13:02;6.60;57.10
3699;DHT22;1865;50.918;7.092;2022-12-05T08:15:29;6.70;57.50
3699;DHT22;1865;50.918;7.092;2022-12-05T08:17:55;6.70;57.10
3699;DHT22;1865;50.918;7.092;2022-12-05T08:20:21;6.60;56.80
3699;DHT22;1865;50.918;7.092;2022-12-05T08:22:51;6.60;56.80
3699;DHT22;1865;50.918;7.092;2022-12-05T08:25:18;6.60;56.80
3699;DHT22;1865;50.918;7.092;2022-12-05T08:27:45;6.60;57.00
3699;DHT22;1865;50.918;7.092;2022-12-05T08:30:12;6.60;57.10
3699;DHT22;1865;50.918;7.092;2022-12-05T08:32:37;6.70;56.80
3699;DHT22;1865;50.918;7.092;2022-12-05T08:35:03;6.80;57.20
3699;DHT22;1865;50.918;7.092;2022-12-05T08:37:29;6.90;57.50
3699;DHT22;1865;50.918;7.092;2022-12-05T08:39:54;6.90;56.80
3699;DHT22;1865;50.918;7.092;2022-12-05T08:42:21;6.90;56.60
3699;DHT22;1865;50.918;7.092;2022-12-05T08:44:48;7.00;57.10
3699;DHT22;1865;50.918;7.092;2022-12-05T08:47:15;7.00;56.10
3699;DHT22;1865;50.918;7.092;2022-12-05T08:49:42;6.90;56.30
3699;DHT22;1865;50.918;7.092;2022-12-05T08:52:10;7.10;56.40
3699;DHT22;1865;50.918;7.092;2022-12-05T08:54:39;7.00;56.60
3699;DHT22;1865;50.918;7.092;2022-12-05T08:57:04;7.00;57.00
3699;DHT22;1865;50.918;7.092;2022-12-05T08:59:30;7.10;56.50
3699;DHT22;1865;50.918;7.092;2022-12-05T09:01:56;7.10;56.00
3699;DHT22;1865;50.918;7.092;2022-12-05T09:04:22;7.20;56.40
3699;DHT22;1865;50.918;7.092;2022-12-05T09:06:48;7.20;55.80
3699;DHT22;1865;50.918;7.092;2022-12-05T09:09:13;7.20;56.40
3699;DHT22;1865;50.918;7.092;2022-12-05T09:11:43;7.30;57.00
3699;DHT22;1865;50.918;7.092;2022-12-05T09:14:13;7.40;56.10
3699;DHT22;1865;50.918;7.092;2022-12-05T09:16:39;7.30;55.70
3699;DHT22;1865;50.918;7.092;2022-12-05T09:19:12;7.30;56.50
3699;DHT22;1865;50.918;7.092;2022-12-05T09:21:38;7.20;56.40
3699;DHT22;1865;50.918;7.092;2022-12-05T09:24:05;7.30;57.10
3699;DHT22;1865;50.918;7.092;2022-12-05T09:26:30;7.40;56.40
3699;DHT22;1865;50.918;7.092;2022-12-05T09:28:57;7.40;56.80
3699;DHT22;1865;50.918;7.092;2022-12-05T09:31:24;7.30;55.90
3699;DHT22;1865;50.918;7.092;2022-12-05T09:33:53;7.40;57.20
3699;DHT22;1865;50.918;7.092;2022-12-05T09:36:24;7.50;57.00
3699;DHT22;1865;50.918;7.092;2022-12-05T09:38:52;7.60;56.90
3699;DHT22;1865;50.918;7.092;2022-12-05T09:41:50;7.70;56.50
3699;DHT22;1865;50.918;7.092;2022-12-05T09:44:52;7.50;55.60
3699;DHT22;1865;50.918;7.092;2022-12-05T09:50:20;7.20;56.90
3699;DHT22;1865;50.918;7.092;2022-12-05T09:55:48;7.50;57.60
3699;DHT22;1865;50.918;7.092;2022-12-05T09:58:26;7.50;57.00
3699;DHT22;1865;50.918;7.092;2022-12-05T10:10:11;7.60;55.90
3699;DHT22;1865;50.918;7.092;2022-12-05T10:21:29;7.60;55.90
3699;DHT22;1865;50.918;7.092;2022-12-05T10:24:14;7.50;56.90
3699;DHT22;1865;50.918;7.092;2022-12-05T10:26:47;7.60;57.00
3699;DHT22;1865;50.918;7.092;2022-12-05T10:29:24;7.60;56.90
3699;DHT22;1865;50.918;7.092;2022-12-05T10:31:55;7.70;57.30
3699;DHT22;1865;50.918;7.092;2022-12-05T10:34:36;7.80;56.10
3699;DHT22;1865;50.918;7.092;2022-12-05T10:37:14;7.80;56.70
3699;DHT22;1865;50.918;7.092;2022-12-05T10:39:41;7.80;56.60
3699;DHT22;1865;50.918;7.092;2022-12-05T10:42:12;7.70;57.10
3699;DHT22;1865;50.918;7.092;2022-12-05T10:44:39;7.70;56.40
3699;DHT22;1865;50.918;7.092;2022-12-05T10:47:05;7.60;56.70
3699;DHT22;1865;50.918;7.092;2022-12-05T10:49:36;7.60;57.40
3699;DHT22;1865;50.918;7.092;2022-12-05T10:52:03;7.60;57.70
3699;DHT22;1865;50.918;7.092;2022-12-05T10:54:41;7.50;57.80
3699;DHT22;1865;50.918;7.092;2022-12-05T10:57:24;7.60;58.00
3699;DHT22;1865;50.918;7.092;2022-12-05T10:59:50;7.50;57.20
3699;DHT22;1865;50.918;7.092;2022-12-05T11:02:28;7.50;58.00
3699;DHT22;1865;50.918;7.092;2022-12-05T11:04:55;7.50;58.00
3699;DHT22;1865;50.918;7.092;2022-12-05T11:07:36;7.70;58.00
3699;DHT22;1865;50.918;7.092;2022-12-05T11:10:23;7.70;57.60
3699;DHT22;1865;50.918;7.092;2022-12-05T11:12:51;7.70;57.50
3699;DHT22;1865;50.918;7.092;2022-12-05T11:15:25;7.60;57.20
3699;DHT22;1865;50.918;7.092;2022-12-05T11:17:56;7.50;57.60
3699;DHT22;1865;50.918;7.092;2022-12-05T11:20:32;7.50;57.80
3699;DHT22;1865;50.918;7.092;2022-12-05T11:22:57;7.60;58.40
3699;DHT22;1865;50.918;7.092;2022-12-05T11:25:39;7.80;58.20
3699;DHT22;1865;50.918;7.092;2022-12-05T11:31:29;7.90;57.60
3699;DHT22;1865;50.918;7.092;2022-12-05T11:34:15;8.00;56.70
3699;DHT22;1865;50.918;7.092;2022-12-05T11:36:47;8.00;56.70
3699;DHT22;1865;50.918;7.092;2022-12-05T11:39:15;7.90;57.30
3699;DHT22;1865;50.918;7.092;2022-12-05T11:51:12;8.00;56.80
3699;DHT22;1865;50.918;7.092;2022-12-05T12:07:56;8.00;57.20
3699;DHT22;1865;50.918;7.092;2022-12-05T12:10:47;8.00;57.70
3699;DHT22;1865;50.918;7.092;2022-12-05T12:16:43;8.10;57.40
3699;DHT22;1865;50.918;7.092;2022-12-05T12:19:34;8.20;56.70
3699;DHT22;1865;50.918;7.092;2022-12-05T12:22:46;8.20;57.50
3699;DHT22;1865;50.918;7.092;2022-12-05T12:33:45;8.30;56.80
3699;DHT22;1865;50.918;7.092;2022-12-05T12:36:25;8.60;56.80
3699;DHT22;1865;50.918;7.092;2022-12-05T12:42:02;8.60;56.60
3699;DHT22;1865;50.918;7.092;2022-12-05T12:47:44;8.60;55.40
3699;DHT22;1865;50.918;7.092;2022-12-05T12:50:20;8.60;55.70
3699;DHT22;1865;50.918;7.092;2022-12-05T13:01:22;8.80;54.20
3699;DHT22;1865;50.918;7.092;2022-12-05T13:03:53;8.70;54.70
3699;DHT22;1865;50.918;7.092;2022-12-05T13:06:31;8.80;54.60
3699;DHT22;1865;50.918;7.092;2022-12-05T13:09:17;8.60;55.00
3699;DHT22;1865;50.918;7.092;2022-12-05T13:11:48;8.60;55.20
3699;DHT22;1865;50.918;7.092;2022-12-05T13:14:17;8.50;54.90
3699;DHT22;1865;50.918;7.092;2022-12-05T13:16:50;8.70;55.70
3699;DHT22;1865;50.918;7.092;2022-12-05T13:19:29;8.60;55.30
3699;DHT22;1865;50.918;7.092;2022-12-05T13:22:02;8.50;55.50
3699;DHT22;1865;50.918;7.092;2022-12-05T13:24:28;8.60;55.90
3699;DHT22;1865;50.918;7.092;2022-12-05T13:26:59;8.50;55.30
3699;DHT22;1865;50.918;7.092;2022-12-05T13:29:32;8.60;55.10
3699;DHT22;1865;50.918;7.092;2022-12-05T13:32:00;8.60;54.80
3699;DHT22;1865;50.918;7.092;2022-12-05T13:34:33;8.50;55.30
3699;DHT22;1865;50.918;7.092;2022-12-05T13:37:21;8.40;55.10
3699;DHT22;1865;50.918;7.092;2022-12-05T13:40:28;8.50;55.20
3699;DHT22;1865;50.918;7.092;2022-12-05T13:43:16;8.40;55.30
3699;DHT22;1865;50.918;7.092;2022-12-05T13:46:01;8.50;55.70
3699;DHT22;1865;50.918;7.092;2022-12-05T13:48:33;8.60;55.20
3699;DHT22;1865;50.918;7.092;2022-12-05T13:51:04;8.40;56.30
3699;DHT22;1865;50.918;7.092;2022-12-05T13:53:40;8.50;56.00
3699;DHT22;1865;50.918;7.092;2022-12-05T13:58:53;8.50;56.50
3699;DHT22;1865;50.918;7.092;2022-12-05T14:04:02;8.30;54.80
3699;DHT22;1865;50.918;7.092;2022-12-05T14:09:30;8.40;56.10
3699;DHT22;1865;50.918;7.092;2022-12-05T14:12:28;8.50;55.70
3699;DHT22;1865;50.918;7.092;2022-12-05T14:17:28;8.50;54.90
3699;DHT22;1865;50.918;7.092;2022-12-05T14:22:57;8.40;55.70
3699;DHT22;1865;50.918;7.092;2022-12-05T14:25:56;8.30;55.30
3699;DHT22;1865;50.918;7.092;2022-12-05T14:28:43;8.20;55.70
3699;DHT22;1865;50.918;7.092;2022-12-05T14:31:33;8.20;55.80
3699;DHT22;1865;50.918;7.092;2022-12-05T14:34:21;8.20;55.60
3699;DHT22;1865;50.918;7.092;2022-12-05T14:37:00;8.10;55.70
3699;DHT22;1865;50.918;7.092;2022-12-05T14:39:45;8.10;55.60
3699;DHT22;1865;50.918;7.092;2022-12-05T14:42:36;8.10;55.90
3699;DHT22;1865;50.918;7.092;2022-12-05T14:45:32;8.20;56.10
3699;DHT22;1865;50.918;7.092;2022-12-05T14:48:02;8.20;55.70
3699;DHT22;1865;50.918;7.092;2022-12-05T14:50:48;8.20;56.10
3699;DHT22;1865;50.918;7.092;2022-12-05T14:53:21;8.30;55.80
3699;DHT22;1865;50.918;7.092;2022-12-05T14:55:53;8.20;55.90
3699;DHT22;1865;50.918;7.092;2022-12-05T14:58:33;8.20;55.10
3699;DHT22;1865;50.918;7.092;2022-12-05T15:01:05;8.10;55.10
3699;DHT22;1865;50.918;7.092;2022-12-05T15:03:35;8.00;55.90
3699;DHT22;1865;50.918;7.092;2022-12-05T15:06:05;8.10;56.30
3699;DHT22;1865;50.918;7.092;2022-12-05T15:08:46;8.10;56.20
3699;DHT22;1865;50.918;7.092;2022-12-05T15:11:22;8.10;55.40
3699;DHT22;1865;50.918;7.092;2022-12-05T15:14:08;8.10;55.30
3699;DHT22;1865;50.918;7.092;2022-12-05T15:16:42;8.00;55.50
3699;DHT22;1865;50.918;7.092;2022-12-05T15:19:16;8.10;56.40
3699;DHT22;1865;50.918;7.092;2022-12-05T15:21:50;8.10;56.40
3699;DHT22;1865;50.918;7.092;2022-12-05T15:24:18;8.20;56.30
3699;DHT22;1865;50.918;7.092;2022-12-05T15:26:50;8.10;55.60
3699;DHT22;1865;50.918;7.092;2022-12-05T15:29:26;8.10;55.80
3699;DHT22;1865;50.918;7.092;2022-12-05T15:34:44;8.10;55.10
3699;DHT22;1865;50.918;7.092;2022-12-05T15:37:18;8.10;55.40
3699;DHT22;1865;50.918;7.092;2022-12-05T15:40:11;8.10;55.10
3699;DHT22;1865;50.918;7.092;2022-12-05T15:42:50;8.00;55.40
3699;DHT22;1865;50.918;7.092;2022-12-05T15:45:24;8.00;55.10
3699;DHT22;1865;50.918;7.092;2022-12-05T15:47:54;8.00;55.70
3699;DHT22;1865;50.918;7.092;2022-12-05T15:50:42;8.00;56.10
3699;DHT22;1865;50.918;7.092;2022-12-05T15:53:35;8.00;55.70
3699;DHT22;1865;50.918;7.092;2022-12-05T15:56:30;8.10;55.50
3699;DHT22;1865;50.918;7.092;2022-12-05T15:59:04;8.10;55.60
3699;DHT22;1865;50.918;7.092;2022-12-05T16:01:32;8.10;56.20
3699;DHT22;1865;50.918;7.092;2022-12-05T16:04:32;7.90;55.80
3699;DHT22;1865;50.918;7.092;2022-12-05T16:07:07;8.00;56.50
3699;DHT22;1865;50.918;7.092;2022-12-05T16:09:41;7.90;56.40
3699;DHT22;1865;50.918;7.092;2022-12-05T16:12:36;7.90;56.50
3699;DHT22;1865;50.918;7.092;2022-12-05T16:15:10;7.90;56.00
3699;DHT22;1865;50.918;7.092;2022-12-05T16:17:40;7.90;56.30
3699;DHT22;1865;50.918;7.092;2022-12-05T16:22:57;7.90;56.40
3699;DHT22;1865;50.918;7.092;2022-12-05T16:25:35;7.90;56.20
3699;DHT22;1865;50.918;7.092;2022-12-05T16:28:22;7.80;56.00
3699;DHT22;1865;50.918;7.092;2022-12-05T16:30:57;7.70;56.40
3699;DHT22;1865;50.918;7.092;2022-12-05T16:33:25;7.80;56.70
3699;DHT22;1865;50.918;7.092;2022-12-05T16:35:52;7.80;56.80
3699;DHT22;1865;50.918;7.092;2022-12-05T16:38:25;8.00;56.80
3699;DHT22;1865;50.918;7.092;2022-12-05T16:41:03;7.80;56.40
3699;DHT22;1865;50.918;7.092;2022-12-05T16:49:33;7.90;56.00
3699;DHT22;1865;50.918;7.092;2022-12-05T16:54:27;7.80;56.30
3699;DHT22;1865;50.918;7.092;2022-12-05T16:56:55;7.80;56.20
3699;DHT22;1865;50.918;7.092;2022-12-05T16:59:38;7.70;55.60
3699;DHT22;1865;50.918;7.092;2022-12-05T17:02:16;7.70;56.90
3699;DHT22;1865;50.918;7.092;2022-12-05T17:04:43;7.60;56.00
3699;DHT22;1865;50.918;7.092;2022-12-05T17:07:10;7.60;55.70
3699;DHT22;1865;50.918;7.092;2022-12-05T17:09:35;7.50;56.50
3699;DHT22;1865;50.918;7.092;2022-12-05T17:12:11;7.50;57.10
3699;DHT22;1865;50.918;7.092;2022-12-05T17:14:41;7.40;56.70
3699;DHT22;1865;50.918;7.092;2022-12-05T17:17:13;7.50;57.00
3699;DHT22;1865;50.918;7.092;2022-12-05T17:19:42;7.50;56.70
3699;DHT22;1865;50.918;7.092;2022-12-05T17:22:07;7.50;56.70
3699;DHT22;1865;50.918;7.092;2022-12-05T17:24:33;7.60;56.30
3699;DHT22;1865;50.918;7.092;2022-12-05T17:26:58;7.50;56.40
3699;DHT22;1865;50.918;7.092;2022-12-05T17:29:24;7.50;56.40
3699;DHT22;1865;50.918;7.092;2022-12-05T17:31:49;7.40;55.90
3699;DHT22;1865;50.918;7.092;2022-12-05T17:34:17;7.30;56.40
3699;DHT22;1865;50.918;7.092;2022-12-05T17:36:43;7.40;57.20
3699;DHT22;1865;50.918;7.092;2022-12-05T17:39:09;7.40;56.90
3699;DHT22;1865;50.918;7.092;2022-12-05T17:41:35;7.50;57.00
3699;DHT22;1865;50.918;7.092;2022-12-05T17:44:02;7.50;56.80
3699;DHT22;1865;50.918;7.092;2022-12-05T17:46:27;7.50;56.40
3699;DHT22;1865;50.918;7.092;2022-12-05T17:48:53;7.50;56.20
3699;DHT22;1865;50.918;7.092;2022-12-05T17:51:19;7.40;56.60
3699;DHT22;1865;50.918;7.092;2022-12-05T17:53:45;7.40;56.70
3699;DHT22;1865;50.918;7.092;2022-12-05T17:56:12;7.50;57.00
3699;DHT22;1865;50.918;7.092;2022-12-05T17:58:38;7.50;56.90
3699;DHT22;1865;50.918;7.092;2022-12-05T18:01:04;7.40;56.50
3699;DHT22;1865;50.918;7.092;2022-12-05T18:03:31;7.40;56.70
3699;DHT22;1865;50.918;7.092;2022-12-05T18:05:56;7.40;56.50
3699;DHT22;1865;50.918;7.092;2022-12-05T18:08:22;7.40;56.90
3699;DHT22;1865;50.918;7.092;2022-12-05T18:10:49;7.40;56.80
3699;DHT22;1865;50.918;7.092;2022-12-05T18:13:16;7.40;56.10
3699;DHT22;1865;50.918;7.092;2022-12-05T18:15:42;7.30;56.30
3699;DHT22;1865;50.918;7.092;2022-12-05T18:18:13;7.30;56.40
3699;DHT22;1865;50.918;7.092;2022-12-05T18:20:39;7.40;56.70
3699;DHT22;1865;50.918;7.092;2022-12-05T18:23:06;7.30;56.00
3699;DHT22;1865;50.918;7.092;2022-12-05T18:25:31;7.30;56.70
3699;DHT22;1865;50.918;7.092;2022-12-05T18:28:00;7.30;56.50
3699;DHT22;1865;50.918;7.092;2022-12-05T18:30:26;7.40;56.70
3699;DHT22;1865;50.918;7.092;2022-12-05T18:32:52;7.30;56.60
3699;DHT22;1865;50.918;7.092;2022-12-05T18:35:20;7.30;56.70
3699;DHT22;1865;50.918;7.092;2022-12-05T18:38:05;7.30;56.90
3699;DHT22;1865;50.918;7.092;2022-12-05T18:40:31;7.30;56.60
3699;DHT22;1865;50.918;7.092;2022-12-05T18:42:56;7.40;57.20
3699;DHT22;1865;50.918;7.092;2022-12-05T18:45:22;7.40;56.60
3699;DHT22;1865;50.918;7.092;2022-12-05T18:47:47;7.30;56.50
3699;DHT22;1865;50.918;7.092;2022-12-05T18:50:13;7.30;56.30
3699;DHT22;1865;50.918;7.092;2022-12-05T18:52:39;7.20;56.50
3699;DHT22;1865;50.918;7.092;2022-12-05T18:55:06;7.30;56.70
3699;DHT22;1865;50.918;7.092;2022-12-05T18:57:32;7.30;56.40
3699;DHT22;1865;50.918;7.092;2022-12-05T18:59:58;7.50;56.90
3699;DHT22;1865;50.918;7.092;2022-12-05T19:02:24;7.30;56.60